tititudorancea.com
Station Historical Data
Daily Summary for January 23, 2019 Units:  Metric    English   Both
« Previous Day
Next Day »
Daily Weekly Monthly Yearly Custom
  High: Low: Average:
Temperature: -17.8 °C 15.4 °C 24.2 °C
Dew Point: -17.8 °C 10.2 °C 12.9 °C
Humidity: Humidity % 29 % 53 %
Wind Speed: 0 km/h 4.8 km/h 18 km/h
Wind Gust: 0 km/h - -
Wind:- - South
Pressure: 0 hPa 1010.4 hPa -
Precipitation: 0 mm    
Historical Graphs
 
 
Ararat weather Find more about Weather in Ararat, AU


 



 


Tabular Data for January 23, 2019
Time Temperature Dew Point Pressure Wind Wind Speed Wind Gust Humidity Rainfall Rate (Hourly)
-17.8 °C -17.8 °C 0 hPa Calm     Humidity % 0 mm
02:05 20.9 °C 11.6 °C 1011.1 hPa South 12.9 km/h 24.1 km/h 55 % 0 mm
02:10 20.8 °C 11.4 °C 1011.1 hPa South 14.5 km/h 24.1 km/h 55 % 0 mm
02:15 20.8 °C 11.4 °C 1011.1 hPa SSW 12.9 km/h 20.9 km/h 55 % 0 mm
02:20 20.6 °C 11.5 °C 1011.1 hPa SSW 8 km/h 22.5 km/h 56 % 0 mm
02:25 20.4 °C 11.6 °C 1011.4 hPa SSW 11.3 km/h 22.5 km/h 57 % 0 mm
02:30 20.2 °C 11.6 °C 1011.4 hPa SSW 16.1 km/h 29 km/h 58 % 0 mm
02:35 19.9 °C 11.7 °C 1011.4 hPa SSW 9.7 km/h 24.1 km/h 59 % 0 mm
02:40 19.7 °C 11.7 °C 1011.4 hPa SSW 12.9 km/h 32.2 km/h 60 % 0 mm
02:45 19.6 °C 11.9 °C 1011.4 hPa SSW 14.5 km/h 19.3 km/h 61 % 0 mm
02:50 19.3 °C 11.8 °C 1011.4 hPa SSW 19.3 km/h 30.6 km/h 62 % 0 mm
02:55 19.1 °C 11.9 °C 1011.4 hPa SSW 11.3 km/h 25.7 km/h 63 % 0 mm
03:00 19 °C 12.1 °C 1011.4 hPa SSW 11.3 km/h 24.1 km/h 64 % 0 mm
03:05 18.9 °C 11.9 °C 1011.4 hPa SSW 9.7 km/h 14.5 km/h 64 % 0 mm
03:10 18.8 °C 12.1 °C 1011.4 hPa South 8 km/h 12.9 km/h 65 % 0 mm
03:15 18.6 °C 12.1 °C 1011.4 hPa South 4.8 km/h 11.3 km/h 66 % 0 mm
03:20 18.5 °C 12 °C 1011.4 hPa South 4.8 km/h 12.9 km/h 66 % 0 mm
03:25 18.4 °C 12.2 °C 1011.4 hPa South 9.7 km/h 12.9 km/h 67 % 0 mm
03:30 18.3 °C 12.3 °C 1011.1 hPa South 8 km/h 12.9 km/h 68 % 0 mm
03:35 18.2 °C 12.2 °C 1011.1 hPa South 4.8 km/h 12.9 km/h 68 % 0 mm
03:40 18.1 °C 12.1 °C 1011.1 hPa South 8 km/h 14.5 km/h 68 % 0 mm
03:45 18 °C 12.2 °C 1011.1 hPa South 4.8 km/h 12.9 km/h 69 % 0 mm
03:50 18 °C 12.2 °C 1011.1 hPa South 4.8 km/h 9.7 km/h 69 % 0 mm
03:55 17.9 °C 12.4 °C 1010.7 hPa South 8 km/h 11.3 km/h 70 % 0 mm
04:00 17.9 °C 12.4 °C 1011.1 hPa South 8 km/h 14.5 km/h 70 % 0 mm
04:05 17.9 °C 12.4 °C 1010.7 hPa South 8 km/h 14.5 km/h 70 % 0 mm
04:10 18 °C 12.4 °C 1010.7 hPa South 11.3 km/h 14.5 km/h 70 % 0 mm
04:15 18 °C 12.4 °C 1010.7 hPa South 4.8 km/h 14.5 km/h 70 % 0 mm
04:20 17.9 °C 12.3 °C 1010.7 hPa South 4.8 km/h 14.5 km/h 70 % 0 mm
04:25 17.8 °C 12.5 °C 1010.7 hPa South 8 km/h 11.3 km/h 71 % 0 mm
04:30 17.7 °C 12.4 °C 1010.4 hPa South 9.7 km/h 14.5 km/h 71 % 0 mm
04:35 17.6 °C 12.5 °C 1010.4 hPa South 4.8 km/h 11.3 km/h 72 % 0 mm
04:40 17.6 °C 12.4 °C 1010.7 hPa South 8 km/h 12.9 km/h 72 % 0 mm
04:45 17.5 °C 12.4 °C 1010.4 hPa South 4.8 km/h 11.3 km/h 72 % 0 mm
04:50 17.4 °C 12.5 °C 1010.4 hPa South 8 km/h 12.9 km/h 73 % 0 mm
04:55 17.3 °C 12.4 °C 1010.4 hPa South 11.3 km/h 16.1 km/h 73 % 0 mm
05:00 17.1 °C 12.7 °C 1010.4 hPa South 12.9 km/h 19.3 km/h 75 % 0 mm
05:05 16.9 °C 12.5 °C 1010.4 hPa South 11.3 km/h 17.7 km/h 75 % 0 mm
05:10 16.8 °C 12.5 °C 1010.4 hPa South 11.3 km/h 20.9 km/h 76 % 0 mm
05:15 16.6 °C 12.3 °C 1010.4 hPa South 11.3 km/h 17.7 km/h 76 % 0 mm
08:14 15.4 °C 14.5 °C 1012.8 hPa SSE 29.6 km/h 26.7 km/h 94 % 0 mm
08:19 15.5 °C 14.6 °C 1012.4 hPa South 25.7 km/h 15.3 km/h 94 % 0 mm
08:24 15.6 °C 14.7 °C 1012.4 hPa North 22.2 km/h 14.2 km/h 94 % 0 mm
08:29 15.7 °C 14.7 °C 1012.8 hPa South 22.2 km/h 20.3 km/h 94 % 0 mm
08:34 15.8 °C 14.7 °C 1012.8 hPa North 25.9 km/h 11.4 km/h 93 % 0 mm
08:39 15.9 °C 14.8 °C 1012.8 hPa North 16.7 km/h 10.3 km/h 93 % 0 mm
08:44 15.9 °C 14.7 °C 1013.1 hPa SSE 18.5 km/h 18.5 km/h 92 % 0 mm
08:49 15.9 °C 14.7 °C 1013.1 hPa SSE 24.1 km/h 14.5 km/h 92 % 0 mm
08:54 16.1 °C 14.8 °C 1013.1 hPa South 29 km/h 15.8 km/h 92 % 0 mm
08:59 16.2 °C 14.9 °C 1013.1 hPa SE 31.5 km/h 19.3 km/h 92 % 0 mm
09:04 16.3 °C 14.8 °C 1013.1 hPa SSE 25.9 km/h 13.4 km/h 91 % 0 mm
09:09 16.4 °C 14.8 °C 1013.1 hPa SE 29.6 km/h 13.4 km/h 90 % 0 mm
09:14 16.6 °C 14.9 °C 1013.1 hPa South 20.9 km/h 14.2 km/h 90 % 0 mm
09:19 16.7 °C 14.9 °C 1013.1 hPa SSE 31.5 km/h 17.4 km/h 89 % 0 mm
09:24 16.9 °C 14.9 °C 1013.1 hPa SSE 31.5 km/h 20.3 km/h 88 % 0 mm
09:29 17.1 °C 14.9 °C 1013.1 hPa SSE 24.1 km/h 14.8 km/h 87 % 0 mm
09:34 17.3 °C 14.9 °C 1013.1 hPa SSE 24.1 km/h 16.6 km/h 86 % 0 mm
09:39 17.3 °C 14.9 °C 1013.1 hPa SSE 22.5 km/h 19.6 km/h 86 % 0 mm
09:44 17.4 °C 15 °C 1013.1 hPa SSE 20.4 km/h 9.7 km/h 86 % 0 mm
09:49 17.5 °C 15.1 °C 1013.1 hPa SSE 18.5 km/h 10.6 km/h 86 % 0 mm
09:54 17.8 °C 15.1 °C 1013.1 hPa SSW 22.2 km/h 19 km/h 84 % 0 mm
09:59 18 °C 15.3 °C 1013.1 hPa South 18.5 km/h 12.4 km/h 84 % 0 mm
10:04 18.2 °C 15.3 °C 1013.1 hPa South 16.1 km/h 9 km/h 83 % 0 mm
10:09 18.2 °C 15.1 °C 1013.4 hPa SSE 18.5 km/h 11.9 km/h 82 % 0 mm
10:14 18.4 °C 15.3 °C 1013.1 hPa South 18.5 km/h 13.4 km/h 82 % 0 mm
10:19 18.8 °C 15.3 °C 1013.1 hPa South 32.2 km/h 24.5 km/h 80 % 0 mm
10:24 19.1 °C 15.1 °C 1013.1 hPa SSW 24.1 km/h 19.5 km/h 78 % 0 mm
10:29 19.3 °C 15.2 °C 1013.1 hPa South 20.4 km/h 16.1 km/h 77 % 0 mm
10:34 19.8 °C 15.2 °C 1013.1 hPa South 25.9 km/h 6.6 km/h 75 % 0 mm
10:39 20.3 °C 15.3 °C 1013.1 hPa South 22.2 km/h 10.9 km/h 73 % 0 mm
10:44 20.7 °C 15.4 °C 1013.1 hPa SSE 18.5 km/h 13.8 km/h 72 % 0 mm
10:49 20.7 °C 15.3 °C 1013.1 hPa SSW 27.8 km/h 11.7 km/h 71 % 0 mm
10:54 20.8 °C 15.6 °C 1013.1 hPa South 16.7 km/h 13.5 km/h 72 % 0 mm
10:59 21.1 °C 15.4 °C 1013.1 hPa SSW 20.4 km/h 10.5 km/h 70 % 0 mm
11:04 21.5 °C 15.3 °C 1013.1 hPa SSW 18.5 km/h 13.2 km/h 68 % 0 mm
11:09 21.8 °C 15.4 °C 1012.8 hPa SSE 18.5 km/h 13.4 km/h 67 % 0 mm
11:14 22.1 °C 15.2 °C 1013.1 hPa South 25.9 km/h 15.8 km/h 65 % 0 mm
11:19 22.6 °C 15.4 °C 1012.8 hPa SE 22.2 km/h 13.2 km/h 64 % 0 mm
11:24 22.9 °C 15.4 °C 1013.1 hPa South 24.1 km/h 9.8 km/h 63 % 0 mm
11:29 23.2 °C 15.2 °C 1013.1 hPa SSW 18.5 km/h 17.2 km/h 61 % 0 mm
11:34 23.3 °C 15.3 °C 1012.8 hPa SSE 18.5 km/h 12.4 km/h 61 % 0 mm
11:39 23.8 °C 15.3 °C 1012.8 hPa South 13 km/h 7.4 km/h 59 % 0 mm
11:44 24.5 °C 14.6 °C 1012.8 hPa SE 19.3 km/h 16.1 km/h 54 % 0 mm
11:49 24.9 °C 14.7 °C 1012.8 hPa South 24.1 km/h 13.8 km/h 53 % 0 mm
11:54 25.2 °C 14.3 °C 1013.1 hPa SSE 27.8 km/h 16.4 km/h 51 % 0 mm
11:59 25.2 °C 14.7 °C 1013.1 hPa SE 18.5 km/h 12.4 km/h 52 % 0 mm
12:04 25.7 °C 14.2 °C 1012.8 hPa South 18.5 km/h 11.7 km/h 49 % 0 mm
12:09 25.8 °C 13.9 °C 1012.8 hPa SSE 27.8 km/h 15.9 km/h 48 % 0 mm
12:14 26 °C 14.1 °C 1012.8 hPa SSE 24.1 km/h 16.4 km/h 48 % 0 mm
12:19 26.2 °C 13.6 °C 1012.8 hPa South 20.9 km/h 17.2 km/h 46 % 0 mm
12:24 26.3 °C 14.1 °C 1012.8 hPa SE 27.8 km/h 14.3 km/h 47 % 0 mm
12:29 26.3 °C 13.4 °C 1012.8 hPa SE 29.6 km/h 22 km/h 45 % 0 mm
12:34 26.7 °C 13.7 °C 1012.8 hPa SSE 22.2 km/h 15.1 km/h 45 % 0 mm
12:39 26.8 °C 13.6 °C 1012.8 hPa SSE 24.1 km/h 15.6 km/h 44 % 0 mm
12:44 27.1 °C 13.8 °C 1012.4 hPa SSE 24.1 km/h 17.4 km/h 44 % 0 mm
12:49 26.9 °C 13.7 °C 1012.4 hPa SSE 24.1 km/h 14.5 km/h 44 % 0 mm
12:54 27.2 °C 13.2 °C 1012.4 hPa SSE 13 km/h 14.5 km/h 42 % 0 mm
12:59 27.3 °C 13.3 °C 1012.4 hPa South 20.4 km/h 15.8 km/h 42 % 0 mm
13:04 27.2 °C 13.2 °C 1012.4 hPa SSW 20.4 km/h 13.2 km/h 42 % 0 mm
13:09 27.4 °C 13.3 °C 1012.4 hPa SSE 20.4 km/h 14 km/h 42 % 0 mm
13:14 27.6 °C 13.6 °C 1012.4 hPa South 22.2 km/h 18.2 km/h 42 % 0 mm
13:19 27.7 °C 13.9 °C 1012.4 hPa South 18.5 km/h 13.5 km/h 43 % 0 mm
13:24 27.9 °C 13.8 °C 1012.4 hPa SSE 20.4 km/h 16.4 km/h 42 % 0 mm
13:29 28.4 °C 14.2 °C 1012.4 hPa SE 14.8 km/h 11.6 km/h 42 % 0 mm
13:34 28.8 °C 13.9 °C 1012.4 hPa SSE 25.9 km/h 10.9 km/h 40 % 0 mm
13:39 28.8 °C 14.3 °C 1012.4 hPa South 20.9 km/h 16.9 km/h 41 % 0 mm
13:44 28.5 °C 13.6 °C 1012.4 hPa SSE 25.9 km/h 17.7 km/h 40 % 0 mm
13:49 28.6 °C 14 °C 1012.4 hPa SSE 22.2 km/h 10.6 km/h 41 % 0 mm
13:54 28.8 °C 13.5 °C 1012.4 hPa SSW 27.4 km/h 18.8 km/h 39 % 0 mm
13:59 28.9 °C 13.6 °C 1012.4 hPa SSE 27.4 km/h 16.4 km/h 39 % 0 mm
14:04 29.4 °C 14 °C 1012.4 hPa SSE 31.5 km/h 19.2 km/h 39 % 0 mm
14:09 29.2 °C 13.4 °C 1012.1 hPa SSE 18.5 km/h 10.3 km/h 38 % 0 mm
14:14 29.7 °C 14.2 °C 1012.1 hPa SE 18.5 km/h 13 km/h 39 % 0 mm
14:19 29.7 °C 13.5 °C 1012.1 hPa SSE 18.5 km/h 13.7 km/h 37 % 0 mm
14:24 29.8 °C 14 °C 1012.1 hPa South 14.8 km/h 11.7 km/h 38 % 0 mm
14:29 30.1 °C 13.8 °C 1012.1 hPa SE 22.2 km/h 13 km/h 37 % 0 mm
14:34 29.9 °C 13.7 °C 1012.1 hPa South 22.2 km/h 15.4 km/h 37 % 0 mm
14:39 29.9 °C 13.2 °C 1012.1 hPa South 24.1 km/h 14.5 km/h 36 % 0 mm
14:44 29.7 °C 13 °C 1012.1 hPa South 25.9 km/h 17.2 km/h 36 % 0 mm
14:49 29.8 °C 13.1 °C 1012.1 hPa SE 20.4 km/h 10.1 km/h 36 % 0 mm
14:54 29.8 °C 13.1 °C 1011.7 hPa SE 18.5 km/h 12.2 km/h 36 % 0 mm
14:59 29.9 °C 12.8 °C 1011.7 hPa South 14.8 km/h 11.9 km/h 35 % 0 mm
15:04 30.2 °C 12.6 °C 1011.7 hPa SSE 22.2 km/h 9.8 km/h 34 % 0 mm
15:09 30.5 °C 13.3 °C 1011.7 hPa SSE 22.2 km/h 13.2 km/h 35 % 0 mm
15:14 30.7 °C 13.4 °C 1011.7 hPa SE 27.8 km/h 17.7 km/h 35 % 0 mm
15:19 30.9 °C 13.2 °C 1011.7 hPa SSE 18.5 km/h 15.6 km/h 34 % 0 mm
15:24 30.8 °C 12.7 °C 1011.7 hPa South 20.4 km/h 11.9 km/h 33 % 0 mm
15:29 31 °C 12.8 °C 1011.7 hPa South 27.8 km/h 10.6 km/h 33 % 0 mm
15:34 31.1 °C 12.9 °C 1011.4 hPa ESE 24.1 km/h 14.2 km/h 33 % 0 mm
15:39 31.1 °C 13.4 °C 1011.4 hPa SSE 20.4 km/h 11.1 km/h 34 % 0 mm
15:44 31 °C 12.8 °C 1011.4 hPa South 18.5 km/h 12.1 km/h 33 % 0 mm
15:49 31.2 °C 12.1 °C 1011.4 hPa South 22.2 km/h 16.6 km/h 31 % 0 mm
15:54 31.2 °C 12.1 °C 1011.1 hPa South 22.2 km/h 15 km/h 31 % 0 mm
15:59 31 °C 12.4 °C 1011.1 hPa South 20.4 km/h 16.4 km/h 32 % 0 mm
16:04 31.2 °C 12.1 °C 1011.1 hPa South 18.5 km/h 10 km/h 31 % 0 mm
16:09 31.9 °C 12.2 °C 1011.1 hPa North 19.3 km/h 16.9 km/h 30 % 0 mm
16:14 32 °C 12.8 °C 1011.1 hPa SSE 20.4 km/h 15.4 km/h 31 % 0 mm
16:19 31.9 °C 12.7 °C 1011.1 hPa SE 24.1 km/h 19.2 km/h 31 % 0 mm
16:24 32.1 °C 12.8 °C 1011.1 hPa South 20.9 km/h 12.1 km/h 31 % 0 mm
16:29 31.8 °C 12.6 °C 1011.1 hPa SSE 16.7 km/h 8 km/h 31 % 0 mm
16:34 31.9 °C 12.2 °C 1011.1 hPa SSE 18.5 km/h 10.9 km/h 30 % 0 mm
16:39 32 °C 12.3 °C 1011.1 hPa SSE 25.9 km/h 15.6 km/h 30 % 0 mm
16:44 31.9 °C 12.7 °C 1011.1 hPa SE 22.2 km/h 11.6 km/h 31 % 0 mm
16:49 32.1 °C 12.3 °C 1010.7 hPa SSE 20.4 km/h 13.4 km/h 30 % 0 mm
16:54 32 °C 12.3 °C 1010.7 hPa South 25.9 km/h 15.6 km/h 30 % 0 mm
16:59 32.1 °C 12.3 °C 1010.7 hPa South 33.3 km/h 13.5 km/h 30 % 0 mm
17:04 32.2 °C 12.4 °C 1010.7 hPa SSE 20.9 km/h 10.8 km/h 30 % 0 mm
17:09 32.1 °C 12.3 °C 1010.7 hPa SSE 20.4 km/h 17.7 km/h 30 % 0 mm
17:14 32 °C 12.3 °C 1010.7 hPa SE 22.5 km/h 16.4 km/h 30 % 0 mm
17:19 32.1 °C 12.3 °C 1010.7 hPa SSE 20.4 km/h 11.3 km/h 30 % 0 mm
17:24 32.1 °C 12.3 °C 1010.7 hPa South 22.2 km/h 14.6 km/h 30 % 0 mm
17:29 32.2 °C 12.4 °C 1010.7 hPa SSE 20.4 km/h 13.5 km/h 30 % 0 mm
17:34 31.9 °C 12.2 °C 1010.7 hPa SSE 22.2 km/h 10.9 km/h 30 % 0 mm
17:39 31.8 °C 12.1 °C 1010.7 hPa SSE 33.3 km/h 17.9 km/h 30 % 0 mm
17:44 31.9 °C 12.2 °C 1010.7 hPa SE 24.1 km/h 18.5 km/h 30 % 0 mm
17:49 31.8 °C 12.1 °C 1010.7 hPa SE 24.1 km/h 9.8 km/h 30 % 0 mm
17:54 31.7 °C 12 °C 1010.4 hPa SSE 18.5 km/h 13.2 km/h 30 % 0 mm
17:59 31.6 °C 11.9 °C 1010.4 hPa SE 18.5 km/h 10.3 km/h 30 % 0 mm
18:04 31.6 °C 11.4 °C 1010.4 hPa South 24.1 km/h 15.1 km/h 29 % 0 mm
18:09 31.4 °C 11.7 °C 1010.4 hPa SE 22.2 km/h 15.3 km/h 30 % 0 mm
18:14 31.3 °C 11.6 °C 1010.4 hPa SE 20.4 km/h 13.8 km/h 30 % 0 mm
18:19 31.1 °C 11.5 °C 1010.4 hPa SSE 27.8 km/h 17.1 km/h 30 % 0 mm
18:24 31 °C 11.9 °C 1010.4 hPa SSE 18.5 km/h 11.9 km/h 31 % 0 mm
18:29 31 °C 11.4 °C 1010.4 hPa SE 20.4 km/h 14.6 km/h 30 % 0 mm
18:34 30.8 °C 11.2 °C 1010.4 hPa SSE 20.9 km/h 14.6 km/h 30 % 0 mm
18:39 30.7 °C 11.1 °C 1010.4 hPa SSE 22.2 km/h 14.3 km/h 30 % 0 mm
18:44 30.6 °C 11 °C 1010.7 hPa SE 29.6 km/h 19 km/h 30 % 0 mm
18:49 30.5 °C 11.4 °C 1010.7 hPa SSE 14.8 km/h 9.8 km/h 31 % 0 mm
18:54 30.4 °C 11.4 °C 1010.7 hPa SSE 27.8 km/h 15.6 km/h 31 % 0 mm
18:59 30.2 °C 11.2 °C 1010.7 hPa SSE 20.9 km/h 15.6 km/h 31 % 0 mm
19:04 30.1 °C 11.1 °C 1010.7 hPa SE 30.6 km/h 18.3 km/h 31 % 0 mm
19:09 30 °C 11.5 °C 1010.7 hPa SSE 18.5 km/h 8.4 km/h 32 % 0 mm
19:14 30.1 °C 11.1 °C 1010.7 hPa SSE 18.5 km/h 7.6 km/h 31 % 0 mm
19:19 29.9 °C 10.9 °C 1010.7 hPa SSE 13 km/h 11.1 km/h 31 % 0 mm
19:24 29.7 °C 10.2 °C 1010.7 hPa SSE 20.4 km/h 16.4 km/h 30 % 0 mm
19:29 29.4 °C 10.6 °C 1010.7 hPa SSE 18.5 km/h 12.9 km/h 31 % 0 mm
19:34 29.3 °C 10.9 °C 1011.1 hPa SE 24.1 km/h 16.7 km/h 32 % 0 mm
19:39 29.1 °C 10.7 °C 1011.1 hPa SSE 16.7 km/h 10.8 km/h 32 % 0 mm
19:44 29.1 °C 10.7 °C 1011.1 hPa SSE 22.2 km/h 14.5 km/h 32 % 0 mm
19:49 28.9 °C 10.6 °C 1011.1 hPa SE 29.6 km/h 16.4 km/h 32 % 0 mm
19:54 28.7 °C 10.8 °C 1011.1 hPa SSE 16.7 km/h 12.7 km/h 33 % 0 mm
19:59 28.6 °C 11.2 °C 1011.1 hPa SSE 18.5 km/h 9.2 km/h 34 % 0 mm
20:04 28.4 °C 11.1 °C 1011.1 hPa SSE 13 km/h 10.3 km/h 34 % 0 mm
20:09 28.2 °C 11.3 °C 1011.1 hPa SSE 13 km/h 7.7 km/h 35 % 0 mm
20:14 28 °C 11.1 °C 1011.1 hPa SE 20.4 km/h 14.8 km/h 35 % 0 mm
20:19 27.9 °C 11.4 °C 1011.1 hPa SE 12.9 km/h 11.1 km/h 36 % 0 mm
20:24 27.6 °C 11.6 °C 1011.1 hPa SE 11.1 km/h 6.9 km/h 37 % 0 mm
20:29 27.3 °C 11.8 °C 1011.1 hPa SE 18.5 km/h 15.4 km/h 38 % 0 mm
20:34 27 °C 12.2 °C 1011.1 hPa SE 18.5 km/h 9.8 km/h 40 % 0 mm
20:39 26.7 °C 12.3 °C 1011.1 hPa SE 9.7 km/h 8.2 km/h 41 % 0 mm
20:44 26.3 °C 12.3 °C 1011.1 hPa SE 9.7 km/h 7.4 km/h 42 % 0 mm
20:49 25.9 °C 12.4 °C 1011.1 hPa SE 8 km/h 5.5 km/h 43 % 0 mm
20:54 25.6 °C 12.4 °C 1011.1 hPa SE 14.8 km/h 5.5 km/h 44 % 0 mm
20:59 25.3 °C 12.6 °C 1011.4 hPa SE 11.1 km/h 5 km/h 45 % 0 mm
21:04 25.1 °C 12.6 °C 1011.4 hPa SE 13 km/h 6 km/h 46 % 0 mm
21:09 24.8 °C 12.7 °C 1011.4 hPa SE 11.1 km/h 10.3 km/h 47 % 0 mm
21:14 24.6 °C 12.8 °C 1011.4 hPa SE 11.1 km/h 7.1 km/h 48 % 0 mm
21:19 24.3 °C 12.9 °C 1011.4 hPa SE 11.3 km/h 8.7 km/h 49 % 0 mm
21:24 24.1 °C 13.1 °C 1011.4 hPa SE 9.3 km/h 10.6 km/h 50 % 0 mm
21:29 23.8 °C 13.1 °C 1011.4 hPa SE 9.3 km/h 4 km/h 51 % 0 mm
21:34 23.6 °C 13.4 °C 1011.4 hPa SSE 16.7 km/h 10.1 km/h 53 % 0 mm
21:39 23.3 °C 13.4 °C 1011.4 hPa SSE 13 km/h 7.6 km/h 54 % 0 mm
21:44 23.1 °C 13.5 °C 1011.7 hPa SSE 16.7 km/h 8.2 km/h 55 % 0 mm
21:49 22.9 °C 13.4 °C 1011.7 hPa South 14.8 km/h 13.5 km/h 55 % 0 mm
21:54 22.7 °C 13.5 °C 1011.7 hPa North 18.5 km/h 11.1 km/h 56 % 0 mm
21:59 22.5 °C 13.6 °C 1011.7 hPa South 16.7 km/h 11.4 km/h 57 % 0 mm
22:04 22.3 °C 13.4 °C 1011.7 hPa South 16.7 km/h 6.6 km/h 57 % 0 mm
22:09 22.1 °C 13.2 °C 1011.7 hPa South 11.1 km/h 10 km/h 57 % 0 mm
22:14 21.9 °C 13.3 °C 1012.1 hPa South 13 km/h 9.2 km/h 58 % 0 mm
22:19 21.8 °C 13.4 °C 1012.1 hPa South 13 km/h 7.2 km/h 59 % 0 mm
22:24 21.6 °C 13.2 °C 1012.1 hPa South 13 km/h 7.4 km/h 59 % 0 mm
22:29 21.3 °C 13.2 °C 1012.1 hPa South 13 km/h 10.1 km/h 60 % 0 mm
22:34 21.2 °C 13.1 °C 1012.1 hPa South 16.7 km/h 11.1 km/h 60 % 0 mm
22:39 21 °C 13.2 °C 1012.4 hPa South 13 km/h 9.8 km/h 61 % 0 mm
22:44 20.8 °C 13.1 °C 1012.4 hPa South 16.7 km/h 8.9 km/h 61 % 0 mm
22:49 20.7 °C 13.2 °C 1012.4 hPa South 13 km/h 8.4 km/h 62 % 0 mm
22:54 20.6 °C 13 °C 1012.4 hPa South 13 km/h 6.6 km/h 62 % 0 mm
22:59 20.4 °C 13.1 °C 1012.4 hPa South 14.8 km/h 11.3 km/h 63 % 0 mm
23:04 20.2 °C 13.1 °C 1012.4 hPa South 13 km/h 6.4 km/h 64 % 0 mm
23:09 19.9 °C 13.2 °C 1012.4 hPa South 11.3 km/h 12.4 km/h 65 % 0 mm
23:14 19.7 °C 12.9 °C 1012.4 hPa South 13 km/h 6 km/h 65 % 0 mm
23:19 19.6 °C 13.1 °C 1012.8 hPa South 11.1 km/h 4.5 km/h 66 % 0 mm
23:24 19.4 °C 13.1 °C 1012.8 hPa South 9.7 km/h 9.3 km/h 67 % 0 mm
23:29 19.3 °C 13 °C 1012.8 hPa South 13 km/h 4.3 km/h 67 % 0 mm
23:34 19.1 °C 13.1 °C 1012.8 hPa South 11.1 km/h 6 km/h 68 % 0 mm
23:39 18.9 °C 13.1 °C 1012.8 hPa South 9.3 km/h 7.1 km/h 69 % 0 mm
23:44 18.8 °C 12.9 °C 1012.8 hPa South 5.6 km/h 5 km/h 69 % 0 mm
23:49 18.6 °C 13.1 °C 1012.8 hPa South 8 km/h 6 km/h 70 % 0 mm
23:54 18.4 °C 12.9 °C 1012.8 hPa South 13 km/h 7.1 km/h 70 % 0 mm
23:59 18.3 °C 12.9 °C 1012.8 hPa South 9.3 km/h 9.3 km/h 71 % 0 mm
Ararat Weather
Compliments of Weather Underground - 2 mb
Click here to send mail.


ABOUT

Live weather data from Ararat, Victoria, Australia, 3377
Data uploaded from Cumulus every 5 minutes to Weather Underground.
This site then downloads the raw data for formatting and display.
Metric and imperial data can be displayed. Graphs and historical data available.
Includes Sun and Moon times and rain image live from BOM.

Check out Ararat Weather on Facebook, Twitter and Google +

Help support ongoing costs by checking out the ads





Follow @AraratWeather